sensor_id;sensor_type;location;lat;lon;timestamp;temperature;humidity
48734;DHT22;34530;52.084;5.146;2022-08-20T00:00:25;25.80;64.20
48734;DHT22;34530;52.084;5.146;2022-08-20T00:02:54;25.80;64.20
48734;DHT22;34530;52.084;5.146;2022-08-20T00:05:45;25.80;64.30
48734;DHT22;34530;52.084;5.146;2022-08-20T00:08:10;25.80;64.40
48734;DHT22;34530;52.084;5.146;2022-08-20T00:10:37;25.80;64.40
48734;DHT22;34530;52.084;5.146;2022-08-20T00:13:06;25.80;64.30
48734;DHT22;34530;52.084;5.146;2022-08-20T00:15:34;25.80;64.30
48734;DHT22;34530;52.084;5.146;2022-08-20T00:18:00;25.80;64.30
48734;DHT22;34530;52.084;5.146;2022-08-20T00:20:29;25.70;64.40
48734;DHT22;34530;52.084;5.146;2022-08-20T00:22:58;25.70;64.50
48734;DHT22;34530;52.084;5.146;2022-08-20T00:25:26;25.70;64.60
48734;DHT22;34530;52.084;5.146;2022-08-20T00:27:52;25.60;64.60
48734;DHT22;34530;52.084;5.146;2022-08-20T00:30:18;25.60;64.60
48734;DHT22;34530;52.084;5.146;2022-08-20T00:35:11;25.60;64.70
48734;DHT22;34530;52.084;5.146;2022-08-20T00:37:38;25.60;64.70
48734;DHT22;34530;52.084;5.146;2022-08-20T00:40:05;25.60;64.60
48734;DHT22;34530;52.084;5.146;2022-08-20T00:42:42;25.60;64.60
48734;DHT22;34530;52.084;5.146;2022-08-20T00:45:09;25.70;64.60
48734;DHT22;34530;52.084;5.146;2022-08-20T00:47:35;25.60;64.50
48734;DHT22;34530;52.084;5.146;2022-08-20T00:50:04;25.70;64.70
48734;DHT22;34530;52.084;5.146;2022-08-20T00:52:32;25.60;64.50
48734;DHT22;34530;52.084;5.146;2022-08-20T00:54:59;25.60;64.60
48734;DHT22;34530;52.084;5.146;2022-08-20T00:57:33;25.60;64.60
48734;DHT22;34530;52.084;5.146;2022-08-20T01:00:06;25.60;64.60
48734;DHT22;34530;52.084;5.146;2022-08-20T01:02:33;25.60;64.60
48734;DHT22;34530;52.084;5.146;2022-08-20T01:05:00;25.60;64.70
48734;DHT22;34530;52.084;5.146;2022-08-20T01:07:27;25.60;64.70
48734;DHT22;34530;52.084;5.146;2022-08-20T01:10:02;25.60;64.70
48734;DHT22;34530;52.084;5.146;2022-08-20T01:12:29;25.50;64.60
48734;DHT22;34530;52.084;5.146;2022-08-20T01:14:56;25.60;64.70
48734;DHT22;34530;52.084;5.146;2022-08-20T01:17:24;25.60;64.80
48734;DHT22;34530;52.084;5.146;2022-08-20T01:19:57;25.60;64.80
48734;DHT22;34530;52.084;5.146;2022-08-20T01:22:52;25.60;64.80
48734;DHT22;34530;52.084;5.146;2022-08-20T01:28:05;25.50;64.80
48734;DHT22;34530;52.084;5.146;2022-08-20T01:30:33;25.40;65.10
48734;DHT22;34530;52.084;5.146;2022-08-20T01:32:59;25.40;65.10
48734;DHT22;34530;52.084;5.146;2022-08-20T01:35:25;25.40;65.10
48734;DHT22;34530;52.084;5.146;2022-08-20T01:37:51;25.40;65.00
48734;DHT22;34530;52.084;5.146;2022-08-20T01:40:28;25.40;65.00
48734;DHT22;34530;52.084;5.146;2022-08-20T01:42:56;25.40;65.10
48734;DHT22;34530;52.084;5.146;2022-08-20T01:45:21;25.40;65.20
48734;DHT22;34530;52.084;5.146;2022-08-20T01:47:47;25.40;65.30
48734;DHT22;34530;52.084;5.146;2022-08-20T01:50:21;25.40;65.30
48734;DHT22;34530;52.084;5.146;2022-08-20T01:52:56;25.40;65.30
48734;DHT22;34530;52.084;5.146;2022-08-20T01:55:23;25.30;65.30
48734;DHT22;34530;52.084;5.146;2022-08-20T01:57:51;25.30;65.40
48734;DHT22;34530;52.084;5.146;2022-08-20T02:00:17;25.40;65.50
48734;DHT22;34530;52.084;5.146;2022-08-20T02:02:43;25.30;65.30
48734;DHT22;34530;52.084;5.146;2022-08-20T02:05:09;25.30;65.30
48734;DHT22;34530;52.084;5.146;2022-08-20T02:07:35;25.40;65.40
48734;DHT22;34530;52.084;5.146;2022-08-20T02:10:04;25.40;65.40
48734;DHT22;34530;52.084;5.146;2022-08-20T02:12:30;25.40;65.40
48734;DHT22;34530;52.084;5.146;2022-08-20T02:14:56;25.30;65.30
48734;DHT22;34530;52.084;5.146;2022-08-20T02:17:23;25.30;65.30
48734;DHT22;34530;52.084;5.146;2022-08-20T02:20:10;25.30;65.30
48734;DHT22;34530;52.084;5.146;2022-08-20T02:25:06;25.30;66.00
48734;DHT22;34530;52.084;5.146;2022-08-20T02:27:33;25.30;65.20
48734;DHT22;34530;52.084;5.146;2022-08-20T02:29:58;25.30;65.20
48734;DHT22;34530;52.084;5.146;2022-08-20T02:32:24;25.30;65.10
48734;DHT22;34530;52.084;5.146;2022-08-20T02:34:50;25.30;65.10
48734;DHT22;34530;52.084;5.146;2022-08-20T02:37:15;25.30;65.90
48734;DHT22;34530;52.084;5.146;2022-08-20T02:39:43;25.30;65.00
48734;DHT22;34530;52.084;5.146;2022-08-20T02:42:09;25.30;65.00
48734;DHT22;34530;52.084;5.146;2022-08-20T02:44:37;25.30;65.70
48734;DHT22;34530;52.084;5.146;2022-08-20T02:47:04;25.30;64.80
48734;DHT22;34530;52.084;5.146;2022-08-20T02:49:29;25.30;64.70
48734;DHT22;34530;52.084;5.146;2022-08-20T02:51:55;25.30;64.60
48734;DHT22;34530;52.084;5.146;2022-08-20T02:54:21;25.30;64.50
48734;DHT22;34530;52.084;5.146;2022-08-20T02:56:47;25.30;64.30
48734;DHT22;34530;52.084;5.146;2022-08-20T02:59:12;25.30;64.30
48734;DHT22;34530;52.084;5.146;2022-08-20T03:01:38;25.30;64.40
48734;DHT22;34530;52.084;5.146;2022-08-20T03:04:04;25.30;64.40
48734;DHT22;34530;52.084;5.146;2022-08-20T03:06:29;25.20;64.30
48734;DHT22;34530;52.084;5.146;2022-08-20T03:08:55;25.20;64.10
48734;DHT22;34530;52.084;5.146;2022-08-20T03:11:21;25.20;64.70
48734;DHT22;34530;52.084;5.146;2022-08-20T03:13:47;25.30;64.00
48734;DHT22;34530;52.084;5.146;2022-08-20T03:16:13;25.30;63.90
48734;DHT22;34530;52.084;5.146;2022-08-20T03:18:43;25.20;63.80
48734;DHT22;34530;52.084;5.146;2022-08-20T03:21:09;25.30;63.70
48734;DHT22;34530;52.084;5.146;2022-08-20T03:23:36;25.30;63.60
48734;DHT22;34530;52.084;5.146;2022-08-20T03:26:04;25.20;63.50
48734;DHT22;34530;52.084;5.146;2022-08-20T03:28:30;25.20;63.40
48734;DHT22;34530;52.084;5.146;2022-08-20T03:30:56;25.30;63.30
48734;DHT22;34530;52.084;5.146;2022-08-20T03:33:24;25.20;63.10
48734;DHT22;34530;52.084;5.146;2022-08-20T03:35:50;25.20;63.30
48734;DHT22;34530;52.084;5.146;2022-08-20T03:38:18;25.20;63.90
48734;DHT22;34530;52.084;5.146;2022-08-20T03:40:45;25.20;63.00
48734;DHT22;34530;52.084;5.146;2022-08-20T03:43:12;25.20;63.00
48734;DHT22;34530;52.084;5.146;2022-08-20T03:45:40;25.20;62.90
48734;DHT22;34530;52.084;5.146;2022-08-20T03:48:10;25.20;62.90
48734;DHT22;34530;52.084;5.146;2022-08-20T03:50:36;25.20;62.90
48734;DHT22;34530;52.084;5.146;2022-08-20T03:53:03;25.20;62.80
48734;DHT22;34530;52.084;5.146;2022-08-20T03:55:30;25.20;62.60
48734;DHT22;34530;52.084;5.146;2022-08-20T03:57:59;25.20;62.50
48734;DHT22;34530;52.084;5.146;2022-08-20T04:00:42;25.20;62.40
48734;DHT22;34530;52.084;5.146;2022-08-20T04:03:09;25.20;62.30
48734;DHT22;34530;52.084;5.146;2022-08-20T04:05:35;25.20;62.30
48734;DHT22;34530;52.084;5.146;2022-08-20T04:08:10;25.20;62.20
48734;DHT22;34530;52.084;5.146;2022-08-20T04:10:36;25.10;62.00
48734;DHT22;34530;52.084;5.146;2022-08-20T04:13:03;25.20;62.10
48734;DHT22;34530;52.084;5.146;2022-08-20T04:15:29;25.10;62.00
48734;DHT22;34530;52.084;5.146;2022-08-20T04:17:56;25.20;61.90
48734;DHT22;34530;52.084;5.146;2022-08-20T04:20:23;25.10;61.80
48734;DHT22;34530;52.084;5.146;2022-08-20T04:22:51;25.10;61.70
48734;DHT22;34530;52.084;5.146;2022-08-20T04:25:17;25.10;61.50
48734;DHT22;34530;52.084;5.146;2022-08-20T04:27:44;25.10;61.40
48734;DHT22;34530;52.084;5.146;2022-08-20T04:30:11;25.10;61.30
48734;DHT22;34530;52.084;5.146;2022-08-20T04:32:39;25.10;61.30
48734;DHT22;34530;52.084;5.146;2022-08-20T04:35:09;25.10;61.20
48734;DHT22;34530;52.084;5.146;2022-08-20T04:37:37;25.10;61.10
48734;DHT22;34530;52.084;5.146;2022-08-20T04:40:05;25.10;61.10
48734;DHT22;34530;52.084;5.146;2022-08-20T04:42:50;25.00;61.10
48734;DHT22;34530;52.084;5.146;2022-08-20T04:45:16;25.00;61.30
48734;DHT22;34530;52.084;5.146;2022-08-20T04:47:41;25.00;61.30
48734;DHT22;34530;52.084;5.146;2022-08-20T04:50:09;25.00;61.20
48734;DHT22;34530;52.084;5.146;2022-08-20T04:52:35;25.00;61.20
48734;DHT22;34530;52.084;5.146;2022-08-20T04:55:03;25.00;61.10
48734;DHT22;34530;52.084;5.146;2022-08-20T04:57:29;25.00;61.00
48734;DHT22;34530;52.084;5.146;2022-08-20T04:59:54;25.00;61.00
48734;DHT22;34530;52.084;5.146;2022-08-20T05:02:20;25.00;61.00
48734;DHT22;34530;52.084;5.146;2022-08-20T05:04:46;24.90;61.00
48734;DHT22;34530;52.084;5.146;2022-08-20T05:07:14;24.90;61.10
48734;DHT22;34530;52.084;5.146;2022-08-20T05:09:41;24.90;61.10
48734;DHT22;34530;52.084;5.146;2022-08-20T05:12:07;24.90;61.10
48734;DHT22;34530;52.084;5.146;2022-08-20T05:14:33;24.80;61.10
48734;DHT22;34530;52.084;5.146;2022-08-20T05:17:04;24.80;61.20
48734;DHT22;34530;52.084;5.146;2022-08-20T05:19:32;24.80;61.30
48734;DHT22;34530;52.084;5.146;2022-08-20T05:21:58;24.80;61.40
48734;DHT22;34530;52.084;5.146;2022-08-20T05:24:25;24.80;61.50
48734;DHT22;34530;52.084;5.146;2022-08-20T05:26:50;24.80;61.50
48734;DHT22;34530;52.084;5.146;2022-08-20T05:29:19;24.80;61.60
48734;DHT22;34530;52.084;5.146;2022-08-20T05:31:48;24.70;61.60
48734;DHT22;34530;52.084;5.146;2022-08-20T05:34:13;24.70;61.50
48734;DHT22;34530;52.084;5.146;2022-08-20T05:36:42;24.80;61.60
48734;DHT22;34530;52.084;5.146;2022-08-20T05:39:09;24.80;61.50
48734;DHT22;34530;52.084;5.146;2022-08-20T05:41:35;24.80;61.40
48734;DHT22;34530;52.084;5.146;2022-08-20T05:44:00;24.80;61.20
48734;DHT22;34530;52.084;5.146;2022-08-20T05:46:27;24.80;61.20
48734;DHT22;34530;52.084;5.146;2022-08-20T05:48:52;24.80;61.10
48734;DHT22;34530;52.084;5.146;2022-08-20T05:51:18;24.80;61.00
48734;DHT22;34530;52.084;5.146;2022-08-20T05:53:44;24.80;61.00
48734;DHT22;34530;52.084;5.146;2022-08-20T05:56:09;24.80;60.90
48734;DHT22;34530;52.084;5.146;2022-08-20T05:58:37;24.80;60.70
48734;DHT22;34530;52.084;5.146;2022-08-20T06:01:03;24.80;60.60
48734;DHT22;34530;52.084;5.146;2022-08-20T06:03:29;24.80;60.40
48734;DHT22;34530;52.084;5.146;2022-08-20T06:06:14;24.90;60.50
48734;DHT22;34530;52.084;5.146;2022-08-20T06:08:39;24.80;60.30
48734;DHT22;34530;52.084;5.146;2022-08-20T06:11:06;24.80;60.20
48734;DHT22;34530;52.084;5.146;2022-08-20T06:13:32;24.90;60.20
48734;DHT22;34530;52.084;5.146;2022-08-20T06:15:59;24.90;60.00
48734;DHT22;34530;52.084;5.146;2022-08-20T06:18:25;24.90;60.00
48734;DHT22;34530;52.084;5.146;2022-08-20T06:20:51;24.90;59.90
48734;DHT22;34530;52.084;5.146;2022-08-20T06:23:18;24.90;60.00
48734;DHT22;34530;52.084;5.146;2022-08-20T06:25:44;24.90;60.00
48734;DHT22;34530;52.084;5.146;2022-08-20T06:28:12;24.90;59.90
48734;DHT22;34530;52.084;5.146;2022-08-20T06:30:38;24.90;59.70
48734;DHT22;34530;52.084;5.146;2022-08-20T06:33:04;24.90;59.30
48734;DHT22;34530;52.084;5.146;2022-08-20T06:35:30;24.90;59.10
48734;DHT22;34530;52.084;5.146;2022-08-20T06:37:58;24.90;59.10
48734;DHT22;34530;52.084;5.146;2022-08-20T06:40:26;24.90;59.00
48734;DHT22;34530;52.084;5.146;2022-08-20T06:42:53;24.90;59.00
48734;DHT22;34530;52.084;5.146;2022-08-20T06:45:27;24.90;58.60
48734;DHT22;34530;52.084;5.146;2022-08-20T06:47:55;25.00;58.60
48734;DHT22;34530;52.084;5.146;2022-08-20T06:50:38;24.90;58.60
48734;DHT22;34530;52.084;5.146;2022-08-20T06:53:09;25.00;58.60
48734;DHT22;34530;52.084;5.146;2022-08-20T06:55:36;24.90;58.10
48734;DHT22;34530;52.084;5.146;2022-08-20T06:58:06;24.90;58.20
48734;DHT22;34530;52.084;5.146;2022-08-20T07:00:34;24.90;57.80
48734;DHT22;34530;52.084;5.146;2022-08-20T07:03:00;24.90;57.70
48734;DHT22;34530;52.084;5.146;2022-08-20T07:05:28;24.90;57.30
48734;DHT22;34530;52.084;5.146;2022-08-20T07:07:54;24.90;57.40
48734;DHT22;34530;52.084;5.146;2022-08-20T07:10:20;24.90;57.50
48734;DHT22;34530;52.084;5.146;2022-08-20T07:12:46;24.90;57.40
48734;DHT22;34530;52.084;5.146;2022-08-20T07:15:16;24.90;57.30
48734;DHT22;34530;52.084;5.146;2022-08-20T07:17:47;24.90;57.20
48734;DHT22;34530;52.084;5.146;2022-08-20T07:20:13;24.90;56.80
48734;DHT22;34530;52.084;5.146;2022-08-20T07:22:40;24.90;55.50
48734;DHT22;34530;52.084;5.146;2022-08-20T07:25:08;24.90;56.00
48734;DHT22;34530;52.084;5.146;2022-08-20T07:27:35;24.90;56.10
48734;DHT22;34530;52.084;5.146;2022-08-20T07:30:01;24.90;54.70
48734;DHT22;34530;52.084;5.146;2022-08-20T07:32:45;24.90;55.30
48734;DHT22;34530;52.084;5.146;2022-08-20T07:35:14;24.90;55.40
48734;DHT22;34530;52.084;5.146;2022-08-20T07:37:42;24.90;55.70
48734;DHT22;34530;52.084;5.146;2022-08-20T07:40:16;24.90;55.50
48734;DHT22;34530;52.084;5.146;2022-08-20T07:42:42;24.90;55.40
48734;DHT22;34530;52.084;5.146;2022-08-20T07:45:11;24.80;55.00
48734;DHT22;34530;52.084;5.146;2022-08-20T07:47:38;24.90;55.10
48734;DHT22;34530;52.084;5.146;2022-08-20T07:50:05;24.80;54.30
48734;DHT22;34530;52.084;5.146;2022-08-20T07:52:31;24.90;54.50
48734;DHT22;34530;52.084;5.146;2022-08-20T07:55:07;24.80;53.90
48734;DHT22;34530;52.084;5.146;2022-08-20T07:57:34;24.80;53.30
48734;DHT22;34530;52.084;5.146;2022-08-20T08:00:00;24.80;53.80
48734;DHT22;34530;52.084;5.146;2022-08-20T08:02:26;24.80;53.40
48734;DHT22;34530;52.084;5.146;2022-08-20T08:04:52;24.80;53.60
48734;DHT22;34530;52.084;5.146;2022-08-20T08:07:18;24.80;52.60
48734;DHT22;34530;52.084;5.146;2022-08-20T08:09:45;24.80;53.00
48734;DHT22;34530;52.084;5.146;2022-08-20T08:12:12;24.80;53.40
48734;DHT22;34530;52.084;5.146;2022-08-20T08:14:40;24.80;53.90
48734;DHT22;34530;52.084;5.146;2022-08-20T08:17:08;24.80;53.60
48734;DHT22;34530;52.084;5.146;2022-08-20T08:19:37;24.80;53.80
48734;DHT22;34530;52.084;5.146;2022-08-20T08:22:09;24.80;54.20
48734;DHT22;34530;52.084;5.146;2022-08-20T08:24:37;24.80;54.90
48734;DHT22;34530;52.084;5.146;2022-08-20T08:27:03;24.80;54.10
48734;DHT22;34530;52.084;5.146;2022-08-20T08:29:29;24.90;54.50
48734;DHT22;34530;52.084;5.146;2022-08-20T08:31:55;24.90;54.80
48734;DHT22;34530;52.084;5.146;2022-08-20T08:34:21;24.90;54.70
48734;DHT22;34530;52.084;5.146;2022-08-20T08:36:50;24.90;54.50
48734;DHT22;34530;52.084;5.146;2022-08-20T08:39:15;24.90;53.60
48734;DHT22;34530;52.084;5.146;2022-08-20T08:41:44;24.90;53.50
48734;DHT22;34530;52.084;5.146;2022-08-20T08:44:19;24.90;53.70
48734;DHT22;34530;52.084;5.146;2022-08-20T08:46:50;24.90;53.30
48734;DHT22;34530;52.084;5.146;2022-08-20T08:49:21;24.90;53.70
48734;DHT22;34530;52.084;5.146;2022-08-20T08:51:48;24.90;54.00
48734;DHT22;34530;52.084;5.146;2022-08-20T08:54:18;24.90;54.00
48734;DHT22;34530;52.084;5.146;2022-08-20T08:56:44;24.90;54.40
48734;DHT22;34530;52.084;5.146;2022-08-20T08:59:11;24.90;53.20
48734;DHT22;34530;52.084;5.146;2022-08-20T09:01:43;24.90;53.60
48734;DHT22;34530;52.084;5.146;2022-08-20T09:04:12;24.90;53.80
48734;DHT22;34530;52.084;5.146;2022-08-20T09:06:38;24.90;54.30
48734;DHT22;34530;52.084;5.146;2022-08-20T09:09:06;25.00;54.70
48734;DHT22;34530;52.084;5.146;2022-08-20T09:11:46;25.00;55.00
48734;DHT22;34530;52.084;5.146;2022-08-20T09:14:12;25.10;54.10
48734;DHT22;34530;52.084;5.146;2022-08-20T09:16:37;25.00;54.60
48734;DHT22;34530;52.084;5.146;2022-08-20T09:19:03;25.10;55.10
48734;DHT22;34530;52.084;5.146;2022-08-20T09:21:29;25.10;54.90
48734;DHT22;34530;52.084;5.146;2022-08-20T09:23:54;25.20;55.10
48734;DHT22;34530;52.084;5.146;2022-08-20T09:26:20;25.20;55.30
48734;DHT22;34530;52.084;5.146;2022-08-20T09:28:46;25.30;55.00
48734;DHT22;34530;52.084;5.146;2022-08-20T09:31:11;25.30;53.80
48734;DHT22;34530;52.084;5.146;2022-08-20T09:33:37;25.30;53.60
48734;DHT22;34530;52.084;5.146;2022-08-20T09:36:03;25.40;53.70
48734;DHT22;34530;52.084;5.146;2022-08-20T09:38:28;25.40;53.30
48734;DHT22;34530;52.084;5.146;2022-08-20T09:40:54;25.40;53.10
48734;DHT22;34530;52.084;5.146;2022-08-20T09:43:20;25.50;53.40
48734;DHT22;34530;52.084;5.146;2022-08-20T09:45:45;25.50;53.70
48734;DHT22;34530;52.084;5.146;2022-08-20T09:48:11;25.60;54.40
48734;DHT22;34530;52.084;5.146;2022-08-20T09:50:41;25.60;54.60
48734;DHT22;34530;52.084;5.146;2022-08-20T09:53:08;25.60;54.30
48734;DHT22;34530;52.084;5.146;2022-08-20T09:55:41;25.60;53.40
48734;DHT22;34530;52.084;5.146;2022-08-20T09:58:21;25.60;53.30
48734;DHT22;34530;52.084;5.146;2022-08-20T10:00:49;25.70;53.30
48734;DHT22;34530;52.084;5.146;2022-08-20T10:03:15;25.70;53.60
48734;DHT22;34530;52.084;5.146;2022-08-20T10:05:41;25.70;54.40
48734;DHT22;34530;52.084;5.146;2022-08-20T10:08:08;25.70;54.40
48734;DHT22;34530;52.084;5.146;2022-08-20T10:10:34;25.60;52.90
48734;DHT22;34530;52.084;5.146;2022-08-20T10:12:59;25.60;51.40
48734;DHT22;34530;52.084;5.146;2022-08-20T10:15:25;25.60;50.40
48734;DHT22;34530;52.084;5.146;2022-08-20T10:17:51;25.60;50.00
48734;DHT22;34530;52.084;5.146;2022-08-20T10:20:17;25.50;50.00
48734;DHT22;34530;52.084;5.146;2022-08-20T10:22:43;25.50;49.10
48734;DHT22;34530;52.084;5.146;2022-08-20T10:25:09;25.50;48.70
48734;DHT22;34530;52.084;5.146;2022-08-20T10:27:36;25.50;48.60
48734;DHT22;34530;52.084;5.146;2022-08-20T10:30:03;25.50;48.60
48734;DHT22;34530;52.084;5.146;2022-08-20T10:32:29;25.50;48.80
48734;DHT22;34530;52.084;5.146;2022-08-20T10:34:55;25.50;49.20
48734;DHT22;34530;52.084;5.146;2022-08-20T10:37:23;25.50;49.40
48734;DHT22;34530;52.084;5.146;2022-08-20T10:39:50;25.50;49.40
48734;DHT22;34530;52.084;5.146;2022-08-20T10:42:16;25.50;49.10
48734;DHT22;34530;52.084;5.146;2022-08-20T10:44:42;25.50;48.90
48734;DHT22;34530;52.084;5.146;2022-08-20T10:49:39;25.60;48.30
48734;DHT22;34530;52.084;5.146;2022-08-20T10:52:05;25.50;48.50
48734;DHT22;34530;52.084;5.146;2022-08-20T10:54:30;25.50;48.50
48734;DHT22;34530;52.084;5.146;2022-08-20T10:57:03;25.50;48.50
48734;DHT22;34530;52.084;5.146;2022-08-20T10:59:29;25.60;48.40
48734;DHT22;34530;52.084;5.146;2022-08-20T11:01:54;25.60;48.50
48734;DHT22;34530;52.084;5.146;2022-08-20T11:04:20;25.60;48.60
48734;DHT22;34530;52.084;5.146;2022-08-20T11:06:45;25.60;48.40
48734;DHT22;34530;52.084;5.146;2022-08-20T11:09:11;25.60;48.50
48734;DHT22;34530;52.084;5.146;2022-08-20T11:11:37;25.60;48.50
48734;DHT22;34530;52.084;5.146;2022-08-20T11:14:02;25.60;48.00
48734;DHT22;34530;52.084;5.146;2022-08-20T11:16:28;25.60;47.70
48734;DHT22;34530;52.084;5.146;2022-08-20T11:18:54;25.60;47.60
48734;DHT22;34530;52.084;5.146;2022-08-20T11:21:20;25.60;47.40
48734;DHT22;34530;52.084;5.146;2022-08-20T11:23:45;25.60;47.50
48734;DHT22;34530;52.084;5.146;2022-08-20T11:26:21;25.60;47.60
48734;DHT22;34530;52.084;5.146;2022-08-20T11:28:47;25.60;47.90
48734;DHT22;34530;52.084;5.146;2022-08-20T11:31:12;25.60;48.00
48734;DHT22;34530;52.084;5.146;2022-08-20T11:33:38;25.60;48.00
48734;DHT22;34530;52.084;5.146;2022-08-20T11:36:04;25.60;47.80
48734;DHT22;34530;52.084;5.146;2022-08-20T11:38:30;25.60;47.60
48734;DHT22;34530;52.084;5.146;2022-08-20T11:40:55;25.60;47.60
48734;DHT22;34530;52.084;5.146;2022-08-20T11:43:21;25.60;47.50
48734;DHT22;34530;52.084;5.146;2022-08-20T11:45:49;25.60;47.60
48734;DHT22;34530;52.084;5.146;2022-08-20T11:48:17;25.60;47.40
48734;DHT22;34530;52.084;5.146;2022-08-20T11:50:43;25.60;47.50
48734;DHT22;34530;52.084;5.146;2022-08-20T11:53:09;25.60;47.50
48734;DHT22;34530;52.084;5.146;2022-08-20T11:55:35;25.60;47.60
48734;DHT22;34530;52.084;5.146;2022-08-20T11:58:01;25.60;47.60
48734;DHT22;34530;52.084;5.146;2022-08-20T12:00:28;25.60;47.70
48734;DHT22;34530;52.084;5.146;2022-08-20T12:02:54;25.60;47.70
48734;DHT22;34530;52.084;5.146;2022-08-20T12:05:20;25.60;47.60
48734;DHT22;34530;52.084;5.146;2022-08-20T12:07:46;25.60;47.40
48734;DHT22;34530;52.084;5.146;2022-08-20T12:10:12;25.60;47.30
48734;DHT22;34530;52.084;5.146;2022-08-20T12:12:38;25.60;47.30
48734;DHT22;34530;52.084;5.146;2022-08-20T12:15:06;25.60;47.40
48734;DHT22;34530;52.084;5.146;2022-08-20T12:17:32;25.60;47.50
48734;DHT22;34530;52.084;5.146;2022-08-20T12:20:00;25.60;47.60
48734;DHT22;34530;52.084;5.146;2022-08-20T12:22:26;25.70;47.70
48734;DHT22;34530;52.084;5.146;2022-08-20T12:24:52;25.60;47.80
48734;DHT22;34530;52.084;5.146;2022-08-20T12:27:25;25.60;47.60
48734;DHT22;34530;52.084;5.146;2022-08-20T12:29:53;25.70;47.70
48734;DHT22;34530;52.084;5.146;2022-08-20T12:32:20;25.60;47.70
48734;DHT22;34530;52.084;5.146;2022-08-20T12:34:46;25.60;47.80
48734;DHT22;34530;52.084;5.146;2022-08-20T12:37:15;25.70;47.80
48734;DHT22;34530;52.084;5.146;2022-08-20T12:39:43;25.70;47.70
48734;DHT22;34530;52.084;5.146;2022-08-20T12:42:09;25.70;47.70
48734;DHT22;34530;52.084;5.146;2022-08-20T12:44:35;25.70;47.70
48734;DHT22;34530;52.084;5.146;2022-08-20T12:47:25;25.70;47.70
48734;DHT22;34530;52.084;5.146;2022-08-20T12:49:55;25.70;47.80
48734;DHT22;34530;52.084;5.146;2022-08-20T12:52:21;25.70;47.90
48734;DHT22;34530;52.084;5.146;2022-08-20T12:54:47;25.70;48.00
48734;DHT22;34530;52.084;5.146;2022-08-20T12:57:31;25.70;48.00
48734;DHT22;34530;52.084;5.146;2022-08-20T13:00:09;25.80;47.90
48734;DHT22;34530;52.084;5.146;2022-08-20T13:02:36;25.70;47.80
48734;DHT22;34530;52.084;5.146;2022-08-20T13:05:03;25.80;47.90
48734;DHT22;34530;52.084;5.146;2022-08-20T13:07:30;25.80;47.80
48734;DHT22;34530;52.084;5.146;2022-08-20T13:09:58;25.80;47.80
48734;DHT22;34530;52.084;5.146;2022-08-20T13:12:23;25.80;47.70
48734;DHT22;34530;52.084;5.146;2022-08-20T13:14:49;25.80;47.70
48734;DHT22;34530;52.084;5.146;2022-08-20T13:17:16;25.80;47.80
48734;DHT22;34530;52.084;5.146;2022-08-20T13:19:42;25.80;48.40
48734;DHT22;34530;52.084;5.146;2022-08-20T13:22:10;25.80;47.80
48734;DHT22;34530;52.084;5.146;2022-08-20T13:24:35;25.80;47.70
48734;DHT22;34530;52.084;5.146;2022-08-20T13:27:13;25.90;47.90
48734;DHT22;34530;52.084;5.146;2022-08-20T13:29:48;25.90;47.80
48734;DHT22;34530;52.084;5.146;2022-08-20T13:32:15;25.90;48.00
48734;DHT22;34530;52.084;5.146;2022-08-20T13:34:41;25.90;48.30
48734;DHT22;34530;52.084;5.146;2022-08-20T13:37:22;26.20;48.60
48734;DHT22;34530;52.084;5.146;2022-08-20T13:39:48;26.20;48.90
48734;DHT22;34530;52.084;5.146;2022-08-20T13:42:15;26.10;49.20
48734;DHT22;34530;52.084;5.146;2022-08-20T13:44:41;26.10;49.00
48734;DHT22;34530;52.084;5.146;2022-08-20T13:47:23;26.10;48.80
48734;DHT22;34530;52.084;5.146;2022-08-20T13:49:58;26.20;48.80
48734;DHT22;34530;52.084;5.146;2022-08-20T13:52:24;26.20;48.80
48734;DHT22;34530;52.084;5.146;2022-08-20T13:54:50;26.20;48.70
48734;DHT22;34530;52.084;5.146;2022-08-20T13:57:17;26.10;48.60
48734;DHT22;34530;52.084;5.146;2022-08-20T13:59:45;26.10;48.50
48734;DHT22;34530;52.084;5.146;2022-08-20T14:02:12;26.10;48.70
48734;DHT22;34530;52.084;5.146;2022-08-20T14:04:38;26.10;48.80
48734;DHT22;34530;52.084;5.146;2022-08-20T14:07:16;26.10;48.80
48734;DHT22;34530;52.084;5.146;2022-08-20T14:09:47;26.20;48.90
48734;DHT22;34530;52.084;5.146;2022-08-20T14:12:14;26.10;49.00
48734;DHT22;34530;52.084;5.146;2022-08-20T14:14:40;26.10;49.20
48734;DHT22;34530;52.084;5.146;2022-08-20T14:17:18;26.20;49.40
48734;DHT22;34530;52.084;5.146;2022-08-20T14:19:48;26.20;49.20
48734;DHT22;34530;52.084;5.146;2022-08-20T14:22:14;26.20;49.10
48734;DHT22;34530;52.084;5.146;2022-08-20T14:24:45;26.20;49.10
48734;DHT22;34530;52.084;5.146;2022-08-20T14:27:13;26.20;49.00
48734;DHT22;34530;52.084;5.146;2022-08-20T14:29:41;26.20;49.00
48734;DHT22;34530;52.084;5.146;2022-08-20T14:32:09;26.20;49.00
48734;DHT22;34530;52.084;5.146;2022-08-20T14:34:36;26.20;48.90
48734;DHT22;34530;52.084;5.146;2022-08-20T14:37:30;26.20;48.90
48734;DHT22;34530;52.084;5.146;2022-08-20T14:39:58;26.20;48.80
48734;DHT22;34530;52.084;5.146;2022-08-20T14:42:24;26.20;48.90
48734;DHT22;34530;52.084;5.146;2022-08-20T14:44:52;26.20;48.90
48734;DHT22;34530;52.084;5.146;2022-08-20T14:47:23;26.20;49.00
48734;DHT22;34530;52.084;5.146;2022-08-20T14:49:52;26.20;48.90
48734;DHT22;34530;52.084;5.146;2022-08-20T14:52:19;26.20;48.90
48734;DHT22;34530;52.084;5.146;2022-08-20T14:54:46;26.30;49.10
48734;DHT22;34530;52.084;5.146;2022-08-20T14:57:13;26.30;49.10
48734;DHT22;34530;52.084;5.146;2022-08-20T14:59:40;26.30;49.10
48734;DHT22;34530;52.084;5.146;2022-08-20T15:02:07;26.30;49.10
48734;DHT22;34530;52.084;5.146;2022-08-20T15:04:35;26.30;49.10
48734;DHT22;34530;52.084;5.146;2022-08-20T15:07:01;26.30;49.20
48734;DHT22;34530;52.084;5.146;2022-08-20T15:09:31;26.30;49.30
48734;DHT22;34530;52.084;5.146;2022-08-20T15:11:57;26.30;49.30
48734;DHT22;34530;52.084;5.146;2022-08-20T15:14:24;26.30;49.40
48734;DHT22;34530;52.084;5.146;2022-08-20T15:16:49;26.30;50.10
48734;DHT22;34530;52.084;5.146;2022-08-20T15:19:15;26.30;49.50
48734;DHT22;34530;52.084;5.146;2022-08-20T15:21:41;26.30;49.60
48734;DHT22;34530;52.084;5.146;2022-08-20T15:24:06;26.30;49.70
48734;DHT22;34530;52.084;5.146;2022-08-20T15:26:32;26.30;49.80
48734;DHT22;34530;52.084;5.146;2022-08-20T15:28:58;26.30;49.90
48734;DHT22;34530;52.084;5.146;2022-08-20T15:31:24;26.30;50.00
48734;DHT22;34530;52.084;5.146;2022-08-20T15:33:49;26.40;50.10
48734;DHT22;34530;52.084;5.146;2022-08-20T15:36:15;26.40;50.20
48734;DHT22;34530;52.084;5.146;2022-08-20T15:38:41;26.40;50.20
48734;DHT22;34530;52.084;5.146;2022-08-20T15:41:06;26.40;50.20
48734;DHT22;34530;52.084;5.146;2022-08-20T15:43:33;26.40;50.20